Terminal Aerodrome Forecast
Issued by NWS Mt. Holly, NJ

Home | Current Version | Previous Version | Text Only | Print | Product List | Glossary On
Versions: 1 2 3 4 5 6 7 8 9 10 11 12 13 14 15 16 17 18 19 20 21 22 23 24 25 26 27 28
000
FTUS41 KPHI 212348
TAFPHL
TAF
KPHL 212348Z 2200/2306 21008KT P6SM BKN250
     FM220600 20006KT P6SM VCSH BKN090
     FM220800 24005KT 6SM -RA SCT025 OVC060
      TEMPO 2208/2212 4SM RA OVC025
     FM221200 28006KT P6SM OVC015
     FM221400 30010KT P6SM BKN070
     FM221700 32015G25KT P6SM SCT200
     FM230100 32010KT P6SM SKC=

USA.gov is the U.S. government's official web portal to all federal, state and local government web resources and services.